Terminal Aerodrome Forecast
Issued by NWS

Home | Current Version | Previous Version | Text Only | Print | Product List | Glossary On
Versions: 1 2 3 4 5 6 7 8 9 10 11 12 13 14
000
FTUS45 KTFX 082342
TAFLWT
TAF
KLWT 082342Z 0900/0924 VRB05KT P6SM SCT050
     FM090600 11006KT P6SM BKN100
     FM091200 09006KT P6SM OVC060
     FM091800 11006KT 5SM -SN SCT025 OVC035=

USA.gov is the U.S. government's official web portal to all federal, state and local government web resources and services.